createdAt,value
2023-02-10T00:00:37.517Z,98705.00
2023-02-10T00:03:06.867Z,98718.00
2023-02-10T00:05:36.152Z,98720.00
2023-02-10T00:08:05.740Z,98729.00
2023-02-10T00:10:34.961Z,98731.00
2023-02-10T00:13:04.270Z,98737.00
2023-02-10T00:15:33.603Z,98746.00
2023-02-10T00:18:02.887Z,98746.00
2023-02-10T00:20:32.242Z,98756.00
2023-02-10T00:23:01.594Z,98759.00
2023-02-10T00:25:30.891Z,98766.00
2023-02-10T00:28:00.204Z,98767.00
2023-02-10T00:30:29.546Z,98764.00
2023-02-10T00:32:59.342Z,98772.00
2023-02-10T00:35:28.918Z,98777.00
2023-02-10T00:37:58.455Z,98778.00
2023-02-10T00:40:27.745Z,98784.00
2023-02-10T00:42:57.143Z,98786.00
2023-02-10T00:45:26.839Z,98795.00
2023-02-10T00:47:56.732Z,98793.00
2023-02-10T00:50:26.248Z,98802.00
2023-02-10T00:52:55.509Z,98804.00
2023-02-10T00:55:24.878Z,98804.00
2023-02-10T00:57:54.133Z,98812.00
2023-02-10T01:00:23.554Z,98819.00
2023-02-10T01:02:52.928Z,98823.00
2023-02-10T01:05:22.263Z,98824.00
2023-02-10T01:07:51.595Z,98820.00
2023-02-10T01:10:21.404Z,98825.00
2023-02-10T01:12:50.772Z,98825.00
2023-02-10T01:15:20.523Z,98813.00
2023-02-10T01:17:49.881Z,98824.00
2023-02-10T01:20:19.215Z,98826.00
2023-02-10T01:22:48.631Z,98829.00
2023-02-10T01:25:18.573Z,98834.00
2023-02-10T01:27:48.027Z,98833.00
2023-02-10T01:30:17.477Z,98843.00
2023-02-10T01:32:46.797Z,98858.00
2023-02-10T01:35:16.123Z,98868.00
2023-02-10T01:37:45.547Z,98863.00
2023-02-10T01:40:15.377Z,98866.00
2023-02-10T01:42:45.051Z,98859.00
2023-02-10T01:45:50.110Z,98873.00
2023-02-10T01:48:21.687Z,98878.00
2023-02-10T01:51:09.361Z,98890.00
2023-02-10T01:53:38.883Z,98895.00
2023-02-10T01:56:14.614Z,98899.00
2023-02-10T01:58:48.845Z,98889.00
2023-02-10T02:01:20.077Z,98889.00
2023-02-10T02:03:52.543Z,98891.00
2023-02-10T02:06:21.852Z,98897.00
2023-02-10T02:08:56.895Z,98895.00
2023-02-10T02:11:57.986Z,98901.00
2023-02-10T02:14:51.270Z,98905.00
2023-02-10T02:18:13.884Z,98908.00
2023-02-10T02:21:03.787Z,98914.00
2023-02-10T02:24:09.828Z,98910.00
2023-02-10T02:27:12.564Z,98914.00
2023-02-10T02:30:14.006Z,98925.00
2023-02-10T02:32:54.696Z,98929.00
2023-02-10T02:35:33.983Z,98921.00
2023-02-10T02:38:03.658Z,98916.00
2023-02-10T02:40:33.446Z,98925.00
2023-02-10T02:43:02.694Z,98926.00
2023-02-10T02:45:57.595Z,98924.00
2023-02-10T02:49:07.786Z,98924.00
2023-02-10T02:52:11.878Z,98928.00
2023-02-10T02:55:41.540Z,98922.00
2023-02-10T02:58:21.808Z,98919.00
2023-02-10T03:00:54.058Z,98915.00
2023-02-10T03:03:23.870Z,98910.00
2023-02-10T03:05:52.986Z,98908.00
2023-02-10T03:08:22.269Z,98901.00
2023-02-10T03:10:51.413Z,98899.00
2023-02-10T03:13:20.590Z,98901.00
2023-02-10T03:15:50.300Z,98901.00
2023-02-10T03:18:20.109Z,98892.00
2023-02-10T03:20:49.306Z,98892.00
2023-02-10T03:23:18.614Z,98900.00
2023-02-10T03:25:50.032Z,98899.00
2023-02-10T03:28:19.740Z,98893.00
2023-02-10T03:30:51.053Z,98889.00
2023-02-10T03:33:20.933Z,98882.00
2023-02-10T03:35:54.584Z,98877.00
2023-02-10T03:38:24.303Z,98876.00
2023-02-10T03:40:54.985Z,98875.00
2023-02-10T03:43:24.915Z,98878.00
2023-02-10T03:45:54.573Z,98870.00
2023-02-10T03:48:24.083Z,98867.00
2023-02-10T03:50:53.248Z,98856.00
2023-02-10T03:53:22.389Z,98854.00
2023-02-10T03:55:51.610Z,98859.00
2023-02-10T03:58:21.150Z,98851.00
2023-02-10T04:00:50.910Z,98846.00
2023-02-10T04:03:21.461Z,98841.00
2023-02-10T04:05:50.816Z,98841.00
2023-02-10T04:08:20.061Z,98836.00
2023-02-10T04:10:49.318Z,98834.00
2023-02-10T04:13:18.466Z,98831.00
2023-02-10T04:15:47.946Z,98825.00
2023-02-10T04:18:19.566Z,98820.00
2023-02-10T04:20:48.914Z,98823.00
2023-02-10T04:23:18.084Z,98811.00
2023-02-10T04:25:47.833Z,98801.00
2023-02-10T04:28:17.409Z,98812.00
2023-02-10T04:30:46.628Z,98798.00
2023-02-10T04:33:16.140Z,98799.00
2023-02-10T04:35:46.767Z,98791.00
2023-02-10T04:38:16.454Z,98783.00
2023-02-10T04:40:46.116Z,98774.00
2023-02-10T04:43:16.470Z,98769.00
2023-02-10T04:45:47.864Z,98770.00
2023-02-10T04:48:17.408Z,98767.00
2023-02-10T04:50:46.794Z,98760.00
2023-02-10T04:53:15.998Z,98755.00
2023-02-10T04:55:45.294Z,98748.00
2023-02-10T04:58:14.955Z,98744.00
2023-02-10T05:00:44.178Z,98736.00
2023-02-10T05:03:13.305Z,98744.00
2023-02-10T05:05:42.526Z,98738.00
2023-02-10T05:08:11.677Z,98728.00
2023-02-10T05:10:40.815Z,98717.00
2023-02-10T05:13:10.029Z,98709.00
2023-02-10T05:15:39.144Z,98711.00
2023-02-10T05:18:08.455Z,98701.00
2023-02-10T05:20:38.163Z,98696.00
2023-02-10T05:23:07.981Z,98692.00
2023-02-10T05:25:37.153Z,98689.00
2023-02-10T05:28:06.417Z,98690.00
2023-02-10T05:30:35.675Z,98680.00
2023-02-10T05:33:04.810Z,98680.00
2023-02-10T05:35:33.952Z,98676.00
2023-02-10T05:38:05.781Z,98663.00
2023-02-10T05:40:35.341Z,98663.00
2023-02-10T05:43:04.922Z,98660.00
2023-02-10T05:45:35.220Z,98657.00
2023-02-10T05:48:04.482Z,98648.00
2023-02-10T05:50:33.669Z,98636.00
2023-02-10T05:53:02.774Z,98632.00
2023-02-10T05:55:31.876Z,98626.00
2023-02-10T05:58:01.018Z,98625.00
2023-02-10T06:00:30.174Z,98615.00
2023-02-10T06:02:59.355Z,98614.00
2023-02-10T06:05:28.565Z,98616.00
2023-02-10T06:07:57.769Z,98616.00
2023-02-10T06:10:26.941Z,98606.00
2023-02-10T06:12:56.068Z,98594.00
2023-02-10T06:15:25.256Z,98598.00
2023-02-10T06:17:54.407Z,98592.00
2023-02-10T06:20:25.035Z,98579.00
2023-02-10T06:22:55.103Z,98578.00
2023-02-10T06:25:24.988Z,98569.00
2023-02-10T06:27:54.646Z,98567.00
2023-02-10T06:30:26.569Z,98562.00
2023-02-10T06:32:57.008Z,98552.00
2023-02-10T06:35:26.232Z,98541.00
2023-02-10T06:37:55.565Z,98540.00
2023-02-10T06:40:24.711Z,98534.00
2023-02-10T06:42:53.874Z,98542.00
2023-02-10T06:45:23.037Z,98538.00
2023-02-10T06:47:52.227Z,98526.00
2023-02-10T06:50:21.479Z,98517.00
2023-02-10T06:52:51.180Z,98520.00
2023-02-10T06:55:20.930Z,98515.00
2023-02-10T06:57:50.921Z,98510.00
2023-02-10T07:00:20.215Z,98496.00
2023-02-10T07:02:50.190Z,98489.00
2023-02-10T07:05:19.618Z,98491.00
2023-02-10T07:07:49.068Z,98492.00
2023-02-10T07:10:18.284Z,98489.00
2023-02-10T07:12:51.016Z,98482.00
2023-02-10T07:15:20.659Z,98482.00
2023-02-10T07:17:49.776Z,98487.00
2023-02-10T07:20:22.459Z,98479.00
2023-02-10T07:22:53.471Z,98475.00
2023-02-10T07:25:22.953Z,98480.00
2023-02-10T07:27:53.444Z,98476.00
2023-02-10T07:30:22.771Z,98485.00
2023-02-10T07:32:52.143Z,98479.00
2023-02-10T07:35:23.203Z,98478.00
2023-02-10T07:37:52.658Z,98478.00
2023-02-10T07:40:21.904Z,98474.00
2023-02-10T07:42:51.178Z,98470.00
2023-02-10T07:45:21.558Z,98465.00
2023-02-10T07:47:50.678Z,98460.00
2023-02-10T07:50:20.133Z,98458.00
2023-02-10T07:52:50.170Z,98461.00
2023-02-10T07:55:19.858Z,98447.00
2023-02-10T07:57:49.442Z,98443.00
2023-02-10T08:00:19.540Z,98442.00
2023-02-10T08:02:48.709Z,98443.00
2023-02-10T08:05:18.787Z,98445.00
2023-02-10T08:07:48.019Z,98442.00
2023-02-10T08:10:17.773Z,98445.00
2023-02-10T08:12:48.606Z,98444.00
2023-02-10T08:15:19.054Z,98430.00
2023-02-10T08:17:48.181Z,98436.00
2023-02-10T08:20:17.470Z,98427.00
2023-02-10T08:22:46.758Z,98423.00
2023-02-10T08:25:15.986Z,98423.00
2023-02-10T08:27:45.056Z,98427.00
2023-02-10T08:30:14.644Z,98427.00
2023-02-10T08:32:43.707Z,98427.00
2023-02-10T08:35:13.138Z,98424.00
2023-02-10T08:37:42.317Z,98425.00
2023-02-10T08:40:12.263Z,98429.00
2023-02-10T08:42:41.394Z,98430.00
2023-02-10T08:45:11.949Z,98432.00
2023-02-10T08:47:41.329Z,98423.00
2023-02-10T08:50:10.790Z,98426.00
2023-02-10T08:52:40.143Z,98422.00
2023-02-10T08:55:09.884Z,98427.00
2023-02-10T08:57:39.804Z,98425.00
2023-02-10T09:00:11.675Z,98430.00
2023-02-10T09:02:41.058Z,98425.00
2023-02-10T09:05:11.394Z,98421.00
2023-02-10T09:07:41.023Z,98421.00
2023-02-10T09:10:13.185Z,98417.00
2023-02-10T09:12:44.013Z,98418.00
2023-02-10T09:15:13.672Z,98411.00
2023-02-10T09:17:43.000Z,98413.00
2023-02-10T09:20:13.567Z,98421.00
2023-02-10T09:22:42.852Z,98413.00
2023-02-10T09:25:12.323Z,98411.00
2023-02-10T09:27:41.641Z,98417.00
2023-02-10T09:30:11.746Z,98413.00
2023-02-10T09:32:41.075Z,98416.00
2023-02-10T09:35:10.448Z,98418.00
2023-02-10T09:37:39.770Z,98423.00
2023-02-10T09:40:11.956Z,98421.00
2023-02-10T09:42:49.593Z,98428.00
2023-02-10T09:45:34.754Z,98425.00
2023-02-10T09:48:33.575Z,98429.00
2023-02-10T09:51:37.558Z,98424.00
2023-02-10T09:54:14.695Z,98429.00
2023-02-10T09:56:44.220Z,98430.00
2023-02-10T09:59:25.271Z,98429.00
2023-02-10T10:02:02.848Z,98426.00
2023-02-10T10:04:34.862Z,98431.00
2023-02-10T10:07:40.633Z,98434.00
2023-02-10T10:10:42.536Z,98429.00
2023-02-10T10:13:27.578Z,98441.00
2023-02-10T10:16:25.101Z,98440.00
2023-02-10T10:19:23.537Z,98440.00
2023-02-10T10:22:41.904Z,98437.00
2023-02-10T10:25:17.796Z,98445.00
2023-02-10T10:28:26.722Z,98441.00
2023-02-10T10:30:56.008Z,98442.00
2023-02-10T10:33:51.239Z,98440.00
2023-02-10T10:36:32.146Z,98441.00
2023-02-10T10:39:40.697Z,98449.00
2023-02-10T10:42:18.852Z,98444.00
2023-02-10T10:44:51.831Z,98443.00
2023-02-10T10:47:47.339Z,98444.00
2023-02-10T10:50:21.105Z,98446.00
2023-02-10T10:52:55.321Z,98447.00
2023-02-10T10:55:42.668Z,98450.00
2023-02-10T10:58:48.292Z,98448.00
2023-02-10T11:01:19.846Z,98449.00
2023-02-10T11:03:49.101Z,98455.00
2023-02-10T11:06:20.606Z,98458.00
2023-02-10T11:09:04.427Z,98459.00
2023-02-10T11:11:43.115Z,98461.00
2023-02-10T11:14:24.190Z,98468.00
2023-02-10T11:17:04.910Z,98473.00
2023-02-10T11:19:48.736Z,98482.00
2023-02-10T11:22:23.689Z,98486.00
2023-02-10T11:25:21.873Z,98496.00
2023-02-10T11:27:56.870Z,98494.00
2023-02-10T11:30:42.110Z,98500.00
2023-02-10T11:33:25.651Z,98508.00
2023-02-10T11:36:15.180Z,98511.00
2023-02-10T11:38:44.840Z,98511.00
2023-02-10T11:41:15.052Z,98512.00
2023-02-10T11:43:49.887Z,98515.00
2023-02-10T11:46:31.333Z,98515.00
2023-02-10T11:49:09.253Z,98523.00
2023-02-10T11:51:38.488Z,98519.00
2023-02-10T11:54:12.510Z,98524.00
2023-02-10T11:57:41.610Z,98536.00
2023-02-10T12:00:24.794Z,98531.00
2023-02-10T12:03:15.507Z,98539.00
2023-02-10T12:05:56.480Z,98540.00
2023-02-10T12:08:43.295Z,98540.00
2023-02-10T12:11:22.052Z,98542.00
2023-02-10T12:14:35.371Z,98539.00
2023-02-10T12:17:25.356Z,98537.00
2023-02-10T12:20:32.629Z,98540.00
2023-02-10T12:23:26.684Z,98537.00
2023-02-10T12:26:26.568Z,98544.00
2023-02-10T12:29:25.188Z,98545.00
2023-02-10T12:32:19.882Z,98545.00
2023-02-10T12:35:13.583Z,98543.00
2023-02-10T12:37:58.396Z,98544.00
2023-02-10T12:40:51.961Z,98550.00
2023-02-10T12:43:49.216Z,98556.00
2023-02-10T12:46:55.485Z,98555.00
2023-02-10T12:49:34.614Z,98560.00
2023-02-10T12:52:20.459Z,98554.00
2023-02-10T12:55:06.716Z,98561.00
2023-02-10T12:58:03.627Z,98560.00
2023-02-10T13:00:53.614Z,98571.00
2023-02-10T13:03:37.523Z,98568.00
2023-02-10T13:06:46.468Z,98575.00
2023-02-10T13:09:43.855Z,98581.00
2023-02-10T13:12:27.021Z,98581.00
2023-02-10T13:15:08.176Z,98585.00
2023-02-10T13:17:49.696Z,98582.00
2023-02-10T13:20:33.910Z,98590.00
2023-02-10T13:23:36.315Z,98597.00
2023-02-10T13:26:28.723Z,98601.00
2023-02-10T13:29:20.536Z,98610.00
2023-02-10T13:32:30.097Z,98610.00
2023-02-10T13:35:03.277Z,98613.00
2023-02-10T13:37:46.570Z,98612.00
2023-02-10T13:40:30.048Z,98622.00
2023-02-10T13:43:07.022Z,98627.00
2023-02-10T13:45:40.389Z,98626.00
2023-02-10T13:48:40.233Z,98631.00
2023-02-10T13:51:12.447Z,98625.00
2023-02-10T13:53:44.350Z,98625.00
2023-02-10T13:56:22.773Z,98629.00
2023-02-10T13:59:06.720Z,98636.00
2023-02-10T14:01:50.405Z,98638.00
2023-02-10T14:04:22.453Z,98636.00
2023-02-10T14:06:54.949Z,98649.00
2023-02-10T14:09:33.598Z,98645.00
2023-02-10T14:12:29.972Z,98639.00
2023-02-10T14:15:10.455Z,98638.00
2023-02-10T14:17:41.351Z,98648.00
2023-02-10T14:20:26.078Z,98647.00
2023-02-10T14:23:01.293Z,98643.00
2023-02-10T14:25:41.872Z,98643.00
2023-02-10T14:28:26.402Z,98639.00
2023-02-10T14:31:02.375Z,98642.00
2023-02-10T14:33:37.467Z,98643.00
2023-02-10T14:36:20.820Z,98642.00
2023-02-10T14:39:03.598Z,98640.00
2023-02-10T14:41:36.018Z,98628.00
2023-02-10T14:44:06.076Z,98644.00
2023-02-10T14:46:38.063Z,98647.00
2023-02-10T14:49:17.691Z,98647.00
2023-02-10T14:51:48.171Z,98662.00
2023-02-10T14:54:27.694Z,98659.00
2023-02-10T14:57:00.807Z,98665.00
2023-02-10T14:59:34.850Z,98670.00
2023-02-10T15:02:24.907Z,98674.00
2023-02-10T15:04:59.056Z,98665.00
2023-02-10T15:07:46.704Z,98673.00
2023-02-10T15:10:41.708Z,98676.00
2023-02-10T15:13:12.749Z,98684.00
2023-02-10T15:15:53.026Z,98692.00
2023-02-10T15:18:28.385Z,98697.00
2023-02-10T15:21:07.751Z,98689.00
2023-02-10T15:23:36.840Z,98682.00
2023-02-10T15:26:22.306Z,98680.00
2023-02-10T15:29:13.197Z,98679.00
2023-02-10T15:31:47.708Z,98680.00
2023-02-10T15:34:28.662Z,98686.00
2023-02-10T15:37:07.801Z,98682.00
2023-02-10T15:39:43.739Z,98689.00
2023-02-10T15:42:17.920Z,98694.00
2023-02-10T15:44:47.952Z,98701.00
2023-02-10T15:47:29.639Z,98701.00
2023-02-10T15:50:01.041Z,98703.00
2023-02-10T15:52:36.415Z,98699.00
2023-02-10T15:55:20.985Z,98698.00
2023-02-10T15:57:50.768Z,98701.00
2023-02-10T16:00:30.834Z,98701.00
2023-02-10T16:03:00.348Z,98699.00
2023-02-10T16:05:31.619Z,98702.00
2023-02-10T16:08:08.535Z,98692.00
2023-02-10T16:10:38.106Z,98698.00
2023-02-10T16:13:07.362Z,98695.00
2023-02-10T16:15:36.830Z,98693.00
2023-02-10T16:18:06.303Z,98697.00
2023-02-10T16:20:36.612Z,98681.00
2023-02-10T16:23:06.946Z,98691.00
2023-02-10T16:25:36.523Z,98692.00
2023-02-10T16:28:06.021Z,98685.00
2023-02-10T16:30:37.895Z,98673.00
2023-02-10T16:33:07.413Z,98679.00
2023-02-10T16:35:36.770Z,98667.00
2023-02-10T16:38:06.565Z,98667.00
2023-02-10T16:40:41.720Z,98677.00
2023-02-10T16:43:11.461Z,98673.00
2023-02-10T16:45:41.053Z,98676.00
2023-02-10T16:48:14.562Z,98675.00
2023-02-10T16:50:45.758Z,98670.00
2023-02-10T16:53:15.089Z,98665.00
2023-02-10T16:55:45.137Z,98668.00
2023-02-10T16:58:19.545Z,98667.00
2023-02-10T17:00:48.761Z,98667.00
2023-02-10T17:03:18.152Z,98656.00
2023-02-10T17:05:48.460Z,98659.00
2023-02-10T17:08:18.228Z,98664.00
2023-02-10T17:10:47.345Z,98659.00
2023-02-10T17:13:16.585Z,98650.00
2023-02-10T17:15:46.106Z,98656.00
2023-02-10T17:18:17.445Z,98652.00
2023-02-10T17:20:46.606Z,98656.00
2023-02-10T17:23:16.623Z,98653.00
2023-02-10T17:25:45.832Z,98648.00
2023-02-10T17:28:18.103Z,98640.00
2023-02-10T17:30:47.987Z,98639.00
2023-02-10T17:33:50.067Z,98635.00
2023-02-10T17:36:22.457Z,98640.00
2023-02-10T17:38:52.380Z,98638.00
2023-02-10T17:41:27.860Z,98637.00
2023-02-10T17:44:01.009Z,98639.00
2023-02-10T17:46:30.484Z,98629.00
2023-02-10T17:48:59.668Z,98630.00
2023-02-10T17:51:28.779Z,98632.00
2023-02-10T17:53:57.885Z,98626.00
2023-02-10T17:56:27.032Z,98630.00
2023-02-10T17:58:56.317Z,98622.00
2023-02-10T18:01:29.619Z,98622.00
2023-02-10T18:03:59.908Z,98619.00
2023-02-10T18:06:31.055Z,98617.00
2023-02-10T18:09:01.498Z,98610.00
2023-02-10T18:11:32.798Z,98609.00
2023-02-10T18:14:02.925Z,98611.00
2023-02-10T18:16:33.166Z,98602.00
2023-02-10T18:19:02.754Z,98602.00
2023-02-10T18:21:31.894Z,98607.00
2023-02-10T18:24:03.007Z,98610.00
2023-02-10T18:26:32.146Z,98612.00
2023-02-10T18:29:01.277Z,98606.00
2023-02-10T18:31:30.420Z,98607.00
2023-02-10T18:33:59.552Z,98604.00
2023-02-10T18:36:28.795Z,98607.00
2023-02-10T18:38:57.913Z,98598.00
2023-02-10T18:41:27.838Z,98600.00
2023-02-10T18:43:57.006Z,98603.00
2023-02-10T18:46:26.811Z,98605.00
2023-02-10T18:48:57.230Z,98605.00
2023-02-10T18:51:26.673Z,98598.00
2023-02-10T18:53:55.872Z,98600.00
2023-02-10T18:56:25.002Z,98597.00
2023-02-10T18:58:54.187Z,98596.00
2023-02-10T19:01:27.166Z,98592.00
2023-02-10T19:04:02.192Z,98585.00
2023-02-10T19:06:33.646Z,98585.00
2023-02-10T19:09:02.786Z,98575.00
2023-02-10T19:11:31.984Z,98580.00
2023-02-10T19:14:01.192Z,98580.00
2023-02-10T19:16:30.646Z,98575.00
2023-02-10T19:19:03.225Z,98575.00
2023-02-10T19:21:32.371Z,98574.00
2023-02-10T19:24:01.633Z,98570.00
2023-02-10T19:26:30.904Z,98565.00
2023-02-10T19:29:00.536Z,98564.00
2023-02-10T19:31:29.757Z,98564.00
2023-02-10T19:33:59.042Z,98560.00
2023-02-10T19:36:28.293Z,98567.00
2023-02-10T19:38:57.443Z,98568.00
2023-02-10T19:41:30.912Z,98563.00
2023-02-10T19:44:00.598Z,98554.00
2023-02-10T19:46:29.918Z,98560.00
2023-02-10T19:48:59.100Z,98554.00
2023-02-10T19:51:28.257Z,98556.00
2023-02-10T19:53:57.373Z,98553.00
2023-02-10T19:56:26.847Z,98553.00
2023-02-10T19:58:57.795Z,98547.00
2023-02-10T20:01:27.363Z,98543.00
2023-02-10T20:03:58.124Z,98549.00
2023-02-10T20:06:35.077Z,98540.00
2023-02-10T20:09:04.684Z,98542.00
2023-02-10T20:11:34.133Z,98548.00
2023-02-10T20:14:03.870Z,98548.00
2023-02-10T20:16:33.304Z,98541.00
2023-02-10T20:19:02.403Z,98542.00
2023-02-10T20:21:31.565Z,98546.00
2023-02-10T20:24:00.692Z,98531.00
2023-02-10T20:26:30.006Z,98528.00
2023-02-10T20:28:59.270Z,98528.00
2023-02-10T20:31:28.535Z,98531.00
2023-02-10T20:33:57.773Z,98526.00
2023-02-10T20:36:26.958Z,98523.00
2023-02-10T20:38:56.202Z,98528.00
2023-02-10T20:41:25.454Z,98520.00
2023-02-10T20:43:54.701Z,98523.00
2023-02-10T20:46:26.879Z,98524.00
2023-02-10T20:48:56.165Z,98527.00
2023-02-10T20:51:25.819Z,98526.00
2023-02-10T20:53:54.994Z,98536.00
2023-02-10T20:56:24.137Z,98534.00
2023-02-10T20:58:53.238Z,98534.00
2023-02-10T21:01:22.550Z,98543.00
2023-02-10T21:03:51.682Z,98541.00
2023-02-10T21:06:27.135Z,98547.00
2023-02-10T21:08:59.223Z,98548.00
2023-02-10T21:11:31.411Z,98547.00
2023-02-10T21:14:00.581Z,98544.00
2023-02-10T21:16:30.575Z,98538.00
2023-02-10T21:18:59.893Z,98546.00
2023-02-10T21:21:29.043Z,98549.00
2023-02-10T21:23:58.200Z,98548.00
2023-02-10T21:26:28.194Z,98550.00
2023-02-10T21:28:57.704Z,98546.00
2023-02-10T21:31:26.970Z,98551.00
2023-02-10T21:33:56.128Z,98548.00
2023-02-10T21:36:29.454Z,98553.00
2023-02-10T21:39:02.339Z,98554.00
2023-02-10T21:41:43.618Z,98551.00
2023-02-10T21:44:30.521Z,98556.00
2023-02-10T21:47:08.367Z,98557.00
2023-02-10T21:49:38.710Z,98562.00
2023-02-10T21:52:10.715Z,98564.00
2023-02-10T21:54:41.921Z,98562.00
2023-02-10T21:57:15.059Z,98560.00
2023-02-10T21:59:44.208Z,98560.00
2023-02-10T22:02:16.076Z,98558.00
2023-02-10T22:04:45.581Z,98563.00
2023-02-10T22:07:14.903Z,98572.00
2023-02-10T22:09:44.033Z,98565.00
2023-02-10T22:12:13.233Z,98570.00
2023-02-10T22:14:42.428Z,98575.00
2023-02-10T22:17:11.660Z,98571.00
2023-02-10T22:19:40.904Z,98575.00
2023-02-10T22:22:10.143Z,98578.00
2023-02-10T22:24:39.389Z,98581.00
2023-02-10T22:27:08.519Z,98578.00
2023-02-10T22:29:37.859Z,98589.00
2023-02-10T22:32:07.594Z,98588.00
2023-02-10T22:34:36.904Z,98600.00
2023-02-10T22:37:06.219Z,98598.00
2023-02-10T22:39:35.478Z,98595.00
2023-02-10T22:42:04.821Z,98598.00
2023-02-10T22:44:34.111Z,98603.00
2023-02-10T22:47:03.414Z,98608.00
2023-02-10T22:49:32.626Z,98598.00
2023-02-10T22:52:01.851Z,98603.00
2023-02-10T22:54:31.124Z,98610.00
2023-02-10T22:57:00.386Z,98612.00
2023-02-10T22:59:29.773Z,98615.00
2023-02-10T23:01:59.040Z,98612.00
2023-02-10T23:04:28.423Z,98630.00
2023-02-10T23:06:57.999Z,98626.00
2023-02-10T23:09:27.519Z,98627.00
2023-02-10T23:11:56.910Z,98629.00
2023-02-10T23:14:26.372Z,98632.00
2023-02-10T23:16:58.051Z,98639.00
2023-02-10T23:19:30.332Z,98637.00
2023-02-10T23:22:00.101Z,98637.00
2023-02-10T23:24:29.449Z,98641.00
2023-02-10T23:26:58.848Z,98643.00
2023-02-10T23:29:28.818Z,98638.00
2023-02-10T23:31:58.461Z,98646.00
2023-02-10T23:34:27.788Z,98649.00
2023-02-10T23:36:56.915Z,98657.00
2023-02-10T23:39:26.033Z,98659.00
2023-02-10T23:41:55.158Z,98668.00
2023-02-10T23:44:24.282Z,98680.00
2023-02-10T23:46:53.617Z,98676.00
2023-02-10T23:49:22.787Z,98687.00
2023-02-10T23:51:51.908Z,98683.00
2023-02-10T23:54:21.001Z,98678.00
2023-02-10T23:56:50.160Z,98678.00
2023-02-10T23:59:19.307Z,98690.00
